Time;durP1;ratioP1;P1;durP2;ratioP2;P2;SDS_P1;SDS_P2;PMS_P1;PMS_P2;Temp;Humidity;BMP_temperature;BMP_pressure;BME280_temperature;BME280_humidity;BME280_pressure;Samples;Min_cycle;Max_cycle;Signal;HPM_P1;HPM_P2
2023/06/20 00:00:54;;;;;;;11.55;7.47;;;;;;;;;;5074510;28;20200;-71
2023/06/20 00:03:20;;;;;;;10.27;8.38;;;;;;;;;;5087284;28;20184;-71
2023/06/20 00:05:45;;;;;;;10.05;7.18;;;;;;;;;;5071406;28;20192;-71
2023/06/20 00:08:11;;;;;;;10.65;7.68;;;;;;;;;;5079558;28;20228;-71
2023/06/20 00:10:36;;;;;;;12.60;7.80;;;;;;;;;;5086402;28;20319;-71
2023/06/20 00:13:02;;;;;;;13.20;7.55;;;;;;;;;;5072282;28;20499;-71
2023/06/20 00:15:28;;;;;;;13.60;8.63;;;;;;;;;;5078012;28;20671;-71
2023/06/20 00:17:55;;;;;;;13.43;8.25;;;;;;;;;;5082769;28;20535;-71
2023/06/20 00:20:21;;;;;;;11.70;7.72;;;;;;;;;;5083101;28;20588;-72
2023/06/20 00:22:50;;;;;;;11.75;7.68;;;;;;;;;;5087283;28;20206;-71
2023/06/20 00:25:16;;;;;;;11.05;8.15;;;;;;;;;;5087843;28;20648;-71
2023/06/20 00:27:41;;;;;;;10.38;8.15;;;;;;;;;;5086043;28;20286;-71
2023/06/20 00:30:08;;;;;;;11.02;8.30;;;;;;;;;;5086105;28;20211;-71
2023/06/20 00:32:33;;;;;;;9.55;7.85;;;;;;;;;;5083548;28;20219;-71
2023/06/20 00:34:58;;;;;;;12.93;9.05;;;;;;;;;;5087338;28;20191;-71
2023/06/20 00:37:25;;;;;;;9.32;7.78;;;;;;;;;;5080093;28;20263;-71
2023/06/20 00:39:50;;;;;;;9.68;8.50;;;;;;;;;;5086742;28;20632;-71
2023/06/20 00:42:18;;;;;;;11.90;8.95;;;;;;;;;;5074981;28;20188;-71
2023/06/20 00:44:43;;;;;;;10.07;7.95;;;;;;;;;;5077540;28;20208;-71
2023/06/20 00:47:09;;;;;;;12.90;8.13;;;;;;;;;;5088304;28;20203;-71
2023/06/20 00:49:34;;;;;;;13.48;8.55;;;;;;;;;;5076937;28;20224;-71
2023/06/20 00:52:02;;;;;;;13.30;9.23;;;;;;;;;;5086692;28;20176;-71
2023/06/20 00:54:29;;;;;;;10.85;8.63;;;;;;;;;;5077795;28;20189;-71
2023/06/20 00:56:54;;;;;;;11.85;8.55;;;;;;;;;;5079069;28;20644;-71
2023/06/20 00:59:19;;;;;;;13.70;9.05;;;;;;;;;;5080334;28;20275;-71
2023/06/20 01:01:45;;;;;;;13.00;8.95;;;;;;;;;;5087181;28;20611;-71
2023/06/20 01:04:10;;;;;;;11.25;9.07;;;;;;;;;;5089320;28;20188;-71
2023/06/20 01:06:43;;;;;;;12.20;8.60;;;;;;;;;;5075886;28;20208;-71
2023/06/20 01:09:32;;;;;;;13.88;8.65;;;;;;;;;;5082496;28;20298;-71
2023/06/20 01:12:13;;;;;;;12.57;8.50;;;;;;;;;;5084146;28;20695;-71
2023/06/20 01:14:49;;;;;;;12.82;8.43;;;;;;;;;;5082418;28;20225;-71
2023/06/20 01:17:27;;;;;;;13.15;9.18;;;;;;;;;;5087117;28;20271;-71
2023/06/20 01:20:08;;;;;;;10.23;8.73;;;;;;;;;;5072164;28;20651;-71
2023/06/20 01:22:57;;;;;;;10.68;9.05;;;;;;;;;;5072094;28;20282;-71
2023/06/20 01:25:37;;;;;;;12.82;8.95;;;;;;;;;;5074543;28;20206;-71
2023/06/20 01:28:25;;;;;;;11.20;8.85;;;;;;;;;;5073501;28;20640;-71
2023/06/20 01:30:59;;;;;;;11.95;9.35;;;;;;;;;;5081608;28;20192;-72
2023/06/20 01:33:30;;;;;;;12.60;9.88;;;;;;;;;;5088049;28;20194;-71
2023/06/20 01:35:57;;;;;;;12.70;8.88;;;;;;;;;;5080378;28;20189;-70
2023/06/20 01:38:27;;;;;;;14.20;9.25;;;;;;;;;;5082021;28;20192;-71
2023/06/20 01:40:54;;;;;;;12.95;8.75;;;;;;;;;;5073879;28;20228;-71
2023/06/20 01:43:21;;;;;;;12.50;9.40;;;;;;;;;;5077498;28;20230;-71
2023/06/20 01:45:48;;;;;;;13.18;9.80;;;;;;;;;;5083586;28;20338;-71
2023/06/20 01:48:16;;;;;;;13.18;10.02;;;;;;;;;;5071861;28;20200;-71
2023/06/20 01:50:43;;;;;;;15.40;10.52;;;;;;;;;;5075960;28;20189;-71
2023/06/20 01:53:10;;;;;;;15.55;10.82;;;;;;;;;;5085332;28;20203;-71
2023/06/20 01:55:37;;;;;;;15.85;10.25;;;;;;;;;;5076414;28;20616;-71
2023/06/20 01:58:04;;;;;;;16.23;10.93;;;;;;;;;;5080515;28;20274;-72
2023/06/20 02:00:31;;;;;;;12.50;10.20;;;;;;;;;;5081165;28;20263;-72
2023/06/20 02:02:58;;;;;;;14.43;11.00;;;;;;;;;;5079685;28;20187;-71
2023/06/20 02:05:26;;;;;;;13.77;10.50;;;;;;;;;;5079274;28;20220;-71
2023/06/20 02:07:54;;;;;;;18.38;11.02;;;;;;;;;;5075374;28;20200;-71
2023/06/20 02:10:21;;;;;;;14.27;10.27;;;;;;;;;;5084171;28;20224;-71
2023/06/20 02:12:49;;;;;;;13.48;9.82;;;;;;;;;;5079725;28;20275;-71
2023/06/20 02:15:16;;;;;;;17.95;11.10;;;;;;;;;;5073312;28;20271;-71
2023/06/20 02:17:44;;;;;;;12.40;10.30;;;;;;;;;;5079216;28;20263;-71
2023/06/20 02:20:10;;;;;;;15.23;11.00;;;;;;;;;;5080717;28;20189;-71
2023/06/20 02:22:37;;;;;;;12.98;10.38;;;;;;;;;;5084983;28;20203;-71
2023/06/20 02:25:06;;;;;;;16.05;10.65;;;;;;;;;;5069972;28;20196;-71
2023/06/20 02:27:32;;;;;;;17.50;11.27;;;;;;;;;;5079965;28;20203;-71
2023/06/20 02:29:59;;;;;;;14.60;10.50;;;;;;;;;;5084961;28;20673;-72
2023/06/20 02:32:26;;;;;;;15.55;10.90;;;;;;;;;;5080057;28;20195;-71
2023/06/20 02:34:54;;;;;;;12.45;10.82;;;;;;;;;;5065490;28;20187;-71
2023/06/20 02:37:22;;;;;;;14.75;10.98;;;;;;;;;;5084151;28;20268;-71
2023/06/20 02:39:48;;;;;;;14.60;11.30;;;;;;;;;;5086269;28;20220;-71
2023/06/20 02:42:14;;;;;;;14.85;11.05;;;;;;;;;;5079142;28;20220;-71
2023/06/20 02:44:39;;;;;;;16.17;11.38;;;;;;;;;;5081251;28;20481;-71
2023/06/20 02:47:13;;;;;;;15.00;11.85;;;;;;;;;;5077493;28;20205;-71
2023/06/20 02:50:01;;;;;;;14.93;10.70;;;;;;;;;;5084772;28;20606;-71
2023/06/20 02:52:26;;;;;;;17.98;12.25;;;;;;;;;;5081850;28;20536;-70
2023/06/20 02:54:57;;;;;;;15.65;11.30;;;;;;;;;;5087925;28;20282;-70
2023/06/20 02:57:25;;;;;;;16.98;11.38;;;;;;;;;;5085679;28;20196;-70
2023/06/20 02:59:55;;;;;;;16.67;12.43;;;;;;;;;;5084087;28;20184;-70
2023/06/20 03:02:25;;;;;;;17.33;11.93;;;;;;;;;;5081320;28;20720;-70
2023/06/20 03:04:56;;;;;;;16.55;11.40;;;;;;;;;;5082795;28;20351;-70
2023/06/20 03:07:24;;;;;;;15.20;12.27;;;;;;;;;;5089145;28;20302;-70
2023/06/20 03:09:51;;;;;;;14.30;12.40;;;;;;;;;;5082405;28;20617;-70
2023/06/20 03:12:17;;;;;;;14.43;11.95;;;;;;;;;;5084034;28;20189;-70
2023/06/20 03:14:42;;;;;;;18.20;13.10;;;;;;;;;;5085477;28;20667;-70
2023/06/20 03:17:07;;;;;;;16.88;12.52;;;;;;;;;;5072740;28;20529;-70
2023/06/20 03:19:33;;;;;;;21.10;13.38;;;;;;;;;;5086294;28;20748;-70
2023/06/20 03:21:58;;;;;;;16.65;12.40;;;;;;;;;;5082250;28;20191;-70
2023/06/20 03:24:23;;;;;;;18.25;13.50;;;;;;;;;;5086718;28;20188;-70
2023/06/20 03:26:49;;;;;;;15.93;12.30;;;;;;;;;;5084874;28;20208;-70
2023/06/20 03:29:14;;;;;;;18.83;13.52;;;;;;;;;;5085262;28;20223;-71
2023/06/20 03:31:40;;;;;;;17.88;13.57;;;;;;;;;;5087315;28;20192;-71
2023/06/20 03:34:06;;;;;;;15.52;12.70;;;;;;;;;;5088946;28;20192;-70
2023/06/20 03:36:31;;;;;;;19.30;12.98;;;;;;;;;;5072427;28;20609;-71
2023/06/20 03:38:56;;;;;;;17.08;11.75;;;;;;;;;;5076274;28;20314;-71
2023/06/20 03:41:22;;;;;;;17.60;13.13;;;;;;;;;;5090714;28;20534;-71
2023/06/20 03:43:47;;;;;;;20.30;14.00;;;;;;;;;;5085642;28;20200;-71
2023/06/20 03:46:12;;;;;;;18.73;13.60;;;;;;;;;;5084127;28;20468;-71
2023/06/20 03:48:38;;;;;;;19.98;13.32;;;;;;;;;;5076687;28;20216;-70
2023/06/20 03:51:03;;;;;;;16.23;13.30;;;;;;;;;;5076697;28;20253;-71
2023/06/20 03:53:28;;;;;;;20.85;13.82;;;;;;;;;;5083901;28;20196;-70
2023/06/20 03:55:54;;;;;;;14.18;12.65;;;;;;;;;;5083841;28;20223;-70
2023/06/20 03:58:19;;;;;;;18.83;13.57;;;;;;;;;;5081311;28;20355;-70
2023/06/20 04:00:46;;;;;;;18.40;14.05;;;;;;;;;;5082403;28;20597;-70
2023/06/20 04:03:11;;;;;;;15.60;13.82;;;;;;;;;;5083856;28;20196;-71
2023/06/20 04:05:37;;;;;;;15.50;13.23;;;;;;;;;;5085990;28;20431;-70
2023/06/20 04:08:03;;;;;;;16.00;13.57;;;;;;;;;;5077370;28;20291;-70
2023/06/20 04:10:28;;;;;;;21.60;14.95;;;;;;;;;;5077416;28;20693;-70
2023/06/20 04:12:54;;;;;;;17.48;14.40;;;;;;;;;;5073478;28;20477;-70
2023/06/20 04:15:19;;;;;;;19.10;14.35;;;;;;;;;;5072942;28;20247;-70
2023/06/20 04:17:45;;;;;;;23.88;14.48;;;;;;;;;;5081073;28;20184;-70
2023/06/20 04:20:12;;;;;;;18.80;14.93;;;;;;;;;;5085850;28;20192;-70
2023/06/20 04:22:42;;;;;;;20.48;15.18;;;;;;;;;;5081850;28;20227;-70
2023/06/20 04:25:08;;;;;;;22.17;15.95;;;;;;;;;;5076960;28;20263;-70
2023/06/20 04:27:33;;;;;;;19.20;14.35;;;;;;;;;;5085112;28;20615;-70
2023/06/20 04:29:59;;;;;;;20.48;15.60;;;;;;;;;;5081438;28;20196;-70
2023/06/20 04:32:24;;;;;;;19.80;14.23;;;;;;;;;;5088021;28;20203;-71
2023/06/20 04:34:52;;;;;;;19.92;15.57;;;;;;;;;;5090194;28;20195;-70
2023/06/20 04:37:18;;;;;;;20.23;15.77;;;;;;;;;;5080410;28;20228;-70
2023/06/20 04:39:44;;;;;;;18.80;14.80;;;;;;;;;;5082660;28;20235;-69
2023/06/20 04:42:09;;;;;;;19.63;14.88;;;;;;;;;;5084041;28;20207;-71
2023/06/20 04:44:34;;;;;;;18.90;14.93;;;;;;;;;;5083946;28;20177;-70
2023/06/20 04:47:00;;;;;;;21.90;15.52;;;;;;;;;;5078562;28;20298;-70
2023/06/20 04:49:25;;;;;;;22.65;16.10;;;;;;;;;;5073680;28;20233;-70
2023/06/20 04:51:50;;;;;;;18.10;16.08;;;;;;;;;;5087457;28;20196;-70
2023/06/20 04:54:16;;;;;;;22.15;15.77;;;;;;;;;;5082976;28;20562;-70
2023/06/20 04:56:41;;;;;;;17.48;15.02;;;;;;;;;;5078670;28;20287;-70
2023/06/20 04:59:07;;;;;;;18.50;15.07;;;;;;;;;;5085494;28;20199;-70
2023/06/20 05:01:33;;;;;;;19.15;15.50;;;;;;;;;;5078764;28;20245;-70
2023/06/20 05:03:59;;;;;;;22.67;15.85;;;;;;;;;;5073476;28;20188;-70
2023/06/20 05:06:24;;;;;;;18.65;15.05;;;;;;;;;;5085228;28;21354;-70
2023/06/20 05:08:52;;;;;;;18.00;16.10;;;;;;;;;;5079695;28;20213;-71
2023/06/20 05:11:17;;;;;;;25.42;16.73;;;;;;;;;;5077186;28;20246;-71
2023/06/20 05:13:43;;;;;;;20.02;16.42;;;;;;;;;;5085398;28;20242;-71
2023/06/20 05:16:08;;;;;;;21.05;15.85;;;;;;;;;;5079802;28;20615;-71
2023/06/20 05:18:34;;;;;;;22.58;16.20;;;;;;;;;;5076706;28;20219;-71
2023/06/20 05:21:00;;;;;;;20.60;15.93;;;;;;;;;;5077908;28;20580;-71
2023/06/20 05:23:26;;;;;;;21.08;16.48;;;;;;;;;;5084639;28;20188;-71
2023/06/20 05:25:51;;;;;;;19.27;16.30;;;;;;;;;;5079753;28;20188;-71
2023/06/20 05:28:17;;;;;;;19.67;16.00;;;;;;;;;;5075339;28;20197;-71
2023/06/20 05:30:42;;;;;;;20.63;16.10;;;;;;;;;;5078381;28;20196;-72
2023/06/20 05:33:08;;;;;;;25.42;16.25;;;;;;;;;;5077305;28;20188;-71
2023/06/20 05:35:34;;;;;;;18.88;16.10;;;;;;;;;;5079130;28;20189;-71
2023/06/20 05:38:00;;;;;;;20.20;16.17;;;;;;;;;;5070272;28;20660;-72
2023/06/20 05:40:25;;;;;;;18.25;16.33;;;;;;;;;;5076394;28;20753;-72
2023/06/20 05:42:51;;;;;;;19.98;16.13;;;;;;;;;;5086988;28;20191;-71
2023/06/20 05:45:16;;;;;;;19.38;15.15;;;;;;;;;;5078942;28;20208;-72
2023/06/20 05:47:43;;;;;;;18.63;16.73;;;;;;;;;;5084040;28;20547;-71
2023/06/20 05:50:09;;;;;;;22.00;15.85;;;;;;;;;;5085766;28;20215;-71
2023/06/20 05:52:36;;;;;;;18.20;15.60;;;;;;;;;;5083579;28;20198;-70
2023/06/20 05:55:03;;;;;;;18.00;15.70;;;;;;;;;;5076812;28;20287;-70
2023/06/20 05:57:28;;;;;;;18.70;16.00;;;;;;;;;;5068793;28;20545;-71
2023/06/20 05:59:53;;;;;;;22.88;16.08;;;;;;;;;;5078493;28;20207;-71
2023/06/20 06:02:21;;;;;;;17.70;14.70;;;;;;;;;;5084399;28;20212;-71
2023/06/20 06:04:47;;;;;;;20.55;15.70;;;;;;;;;;5085281;28;20196;-71
2023/06/20 06:07:12;;;;;;;19.42;15.93;;;;;;;;;;5080802;28;20208;-71
2023/06/20 06:09:38;;;;;;;18.70;16.70;;;;;;;;;;5077952;28;20214;-70
2023/06/20 06:12:03;;;;;;;20.55;16.30;;;;;;;;;;5077732;28;20230;-70
2023/06/20 06:14:29;;;;;;;17.55;15.38;;;;;;;;;;5073767;28;20192;-71
2023/06/20 06:16:55;;;;;;;20.77;15.57;;;;;;;;;;5083908;28;20186;-71
2023/06/20 06:19:20;;;;;;;17.08;14.77;;;;;;;;;;5090438;28;20234;-70
2023/06/20 06:21:47;;;;;;;21.63;15.38;;;;;;;;;;5082137;28;20200;-70
2023/06/20 06:24:12;;;;;;;16.65;14.88;;;;;;;;;;5078166;28;20192;-71
2023/06/20 06:26:38;;;;;;;17.90;14.07;;;;;;;;;;5073091;28;20283;-71
2023/06/20 06:29:04;;;;;;;15.75;12.65;;;;;;;;;;5086016;28;20188;-71
2023/06/20 06:31:33;;;;;;;13.48;12.07;;;;;;;;;;5086075;28;20340;-71
2023/06/20 06:33:59;;;;;;;16.50;12.25;;;;;;;;;;5079981;28;20310;-72
2023/06/20 06:36:24;;;;;;;12.95;11.38;;;;;;;;;;5074397;28;20189;-71
2023/06/20 06:38:51;;;;;;;12.02;10.82;;;;;;;;;;5080238;28;20205;-72
2023/06/20 06:41:17;;;;;;;12.68;10.10;;;;;;;;;;5074809;28;20579;-71
2023/06/20 06:43:43;;;;;;;12.38;10.43;;;;;;;;;;5084668;28;20647;-71
2023/06/20 06:46:08;;;;;;;10.73;9.73;;;;;;;;;;5081305;28;20212;-71
2023/06/20 06:48:34;;;;;;;12.27;10.98;;;;;;;;;;5069344;28;20227;-71
2023/06/20 06:51:00;;;;;;;12.27;9.98;;;;;;;;;;5076254;28;20488;-72
2023/06/20 06:53:26;;;;;;;10.48;9.38;;;;;;;;;;5076247;28;20286;-72
2023/06/20 06:55:51;;;;;;;11.52;9.80;;;;;;;;;;5074116;28;20181;-72
2023/06/20 06:58:16;;;;;;;11.35;9.68;;;;;;;;;;5073444;28;20184;-71
2023/06/20 07:00:42;;;;;;;11.45;10.25;;;;;;;;;;5086692;28;20303;-72
2023/06/20 07:03:08;;;;;;;11.25;9.60;;;;;;;;;;5071861;28;20261;-72
2023/06/20 07:05:34;;;;;;;11.32;9.52;;;;;;;;;;5070552;28;20188;-71
2023/06/20 07:07:59;;;;;;;12.73;9.82;;;;;;;;;;5076187;28;20638;-72
2023/06/20 07:10:24;;;;;;;12.70;10.13;;;;;;;;;;5069984;28;20220;-72
2023/06/20 07:12:50;;;;;;;11.88;8.85;;;;;;;;;;5075847;28;20231;-72
2023/06/20 07:15:15;;;;;;;15.25;9.93;;;;;;;;;;5078027;28;20187;-72
2023/06/20 07:17:41;;;;;;;11.57;9.00;;;;;;;;;;5073583;28;20555;-72
2023/06/20 07:20:08;;;;;;;10.13;9.23;;;;;;;;;;5075394;28;20192;-71
2023/06/20 07:22:33;;;;;;;10.00;8.98;;;;;;;;;;5088407;28;20192;-73
2023/06/20 07:24:59;;;;;;;13.32;9.00;;;;;;;;;;5077098;28;20200;-71
2023/06/20 07:27:24;;;;;;;10.05;9.07;;;;;;;;;;5070556;28;20208;-71
2023/06/20 07:29:49;;;;;;;13.68;8.93;;;;;;;;;;5082085;28;20553;-71
2023/06/20 07:32:16;;;;;;;10.70;8.50;;;;;;;;;;5080464;28;20211;-70
2023/06/20 07:34:41;;;;;;;9.80;8.77;;;;;;;;;;5079030;28;20214;-71
2023/06/20 07:37:07;;;;;;;8.88;8.07;;;;;;;;;;5084490;28;20652;-72
2023/06/20 07:39:32;;;;;;;10.10;8.27;;;;;;;;;;5084177;28;20236;-72
2023/06/20 07:41:58;;;;;;;8.32;7.53;;;;;;;;;;5073146;28;20699;-72
2023/06/20 07:44:23;;;;;;;8.65;7.85;;;;;;;;;;5083432;28;20505;-73
2023/06/20 07:46:48;;;;;;;8.88;7.93;;;;;;;;;;5073580;28;20204;-71
2023/06/20 07:49:14;;;;;;;12.88;7.40;;;;;;;;;;5072651;28;20215;-71
2023/06/20 07:51:40;;;;;;;10.27;7.70;;;;;;;;;;5075957;28;20224;-70
2023/06/20 07:54:06;;;;;;;10.73;7.80;;;;;;;;;;5076980;28;20195;-70
2023/06/20 07:56:31;;;;;;;9.07;8.18;;;;;;;;;;5072667;28;20207;-73
2023/06/20 07:58:57;;;;;;;8.80;7.82;;;;;;;;;;5080968;28;20185;-72
2023/06/20 08:01:22;;;;;;;11.02;7.68;;;;;;;;;;5079501;28;20747;-72
2023/06/20 08:03:48;;;;;;;11.43;8.20;;;;;;;;;;5074960;28;20707;-72
2023/06/20 08:06:14;;;;;;;10.40;9.38;;;;;;;;;;5081512;28;20211;-72
2023/06/20 08:08:39;;;;;;;11.05;8.40;;;;;;;;;;5077298;28;20209;-71
2023/06/20 08:11:05;;;;;;;10.55;8.85;;;;;;;;;;5069616;28;20214;-71
2023/06/20 08:13:31;;;;;;;10.32;9.25;;;;;;;;;;5077178;28;20220;-71
2023/06/20 08:15:56;;;;;;;10.15;9.10;;;;;;;;;;5075167;28;20230;-71
2023/06/20 08:18:22;;;;;;;9.55;8.65;;;;;;;;;;5075710;28;20253;-71
2023/06/20 08:20:48;;;;;;;10.18;8.52;;;;;;;;;;5081265;28;20596;-71
2023/06/20 08:23:34;;;;;;;9.73;8.23;;;;;;;;;;5071177;28;20173;-71
2023/06/20 08:25:59;;;;;;;9.93;8.93;;;;;;;;;;5078775;28;20227;-71
2023/06/20 08:28:25;;;;;;;9.27;8.32;;;;;;;;;;5071499;28;20281;-71
2023/06/20 08:30:51;;;;;;;10.40;8.32;;;;;;;;;;5076143;28;20199;-71
2023/06/20 08:33:19;;;;;;;10.20;8.40;;;;;;;;;;5084024;28;20686;-71
2023/06/20 08:35:44;;;;;;;12.32;8.48;;;;;;;;;;5074442;28;20223;-72
2023/06/20 08:38:09;;;;;;;12.27;8.60;;;;;;;;;;5076925;28;20288;-71
2023/06/20 08:40:35;;;;;;;9.90;8.27;;;;;;;;;;5077189;28;20224;-71
2023/06/20 08:43:01;;;;;;;8.45;6.85;;;;;;;;;;5071312;28;20189;-72
2023/06/20 08:45:29;;;;;;;8.40;7.40;;;;;;;;;;5080295;28;20647;-71
2023/06/20 08:47:58;;;;;;;10.20;8.95;;;;;;;;;;5081249;28;20292;-73
2023/06/20 08:50:24;;;;;;;15.32;8.55;;;;;;;;;;5069870;28;20258;-71
2023/06/20 08:52:54;;;;;;;11.35;10.15;;;;;;;;;;5071242;28;20215;-71
2023/06/20 08:55:20;;;;;;;10.80;9.85;;;;;;;;;;5081889;28;20240;-71
2023/06/20 08:57:46;;;;;;;8.65;6.90;;;;;;;;;;5083711;28;20277;-70
2023/06/20 09:00:21;;;;;;;12.20;8.80;;;;;;;;;;5080074;28;20219;-71
2023/06/20 09:02:47;;;;;;;7.95;7.15;;;;;;;;;;5087505;28;20554;-71
2023/06/20 09:05:13;;;;;;;7.25;6.55;;;;;;;;;;5085979;28;20180;-72
2023/06/20 09:07:41;;;;;;;8.50;6.80;;;;;;;;;;5083839;28;20411;-72
2023/06/20 09:10:08;;;;;;;8.55;7.70;;;;;;;;;;5074020;28;20260;-71
2023/06/20 09:12:49;;;;;;;11.43;9.23;;;;;;;;;;5079400;28;20249;-70
2023/06/20 09:15:17;;;;;;;11.52;10.32;;;;;;;;;;5083160;28;20202;-71
2023/06/20 09:17:44;;;;;;;10.77;8.63;;;;;;;;;;5073502;28;20185;-71
2023/06/20 09:20:16;;;;;;;10.70;9.60;;;;;;;;;;5070895;28;20172;-71
2023/06/20 09:22:42;;;;;;;10.77;8.48;;;;;;;;;;5078073;28;20181;-70
2023/06/20 09:25:09;;;;;;;10.30;7.72;;;;;;;;;;5078142;28;20189;-70
2023/06/20 09:27:41;;;;;;;9.20;7.57;;;;;;;;;;5081733;28;20218;-70
2023/06/20 09:30:08;;;;;;;8.70;7.90;;;;;;;;;;5074047;28;20192;-71
2023/06/20 09:32:35;;;;;;;12.82;9.13;;;;;;;;;;5072813;28;20200;-71
2023/06/20 09:35:04;;;;;;;10.05;8.23;;;;;;;;;;5067170;28;20185;-70
2023/06/20 09:37:45;;;;;;;9.70;8.07;;;;;;;;;;5073981;28;20213;-71
2023/06/20 09:40:15;;;;;;;8.70;7.82;;;;;;;;;;5075562;28;20276;-71
2023/06/20 09:42:42;;;;;;;9.32;7.75;;;;;;;;;;5072185;28;20203;-71
2023/06/20 09:45:09;;;;;;;11.85;7.85;;;;;;;;;;5072569;28;20601;-72
2023/06/20 09:47:37;;;;;;;8.73;7.07;;;;;;;;;;5073609;28;20207;-71
2023/06/20 09:50:13;;;;;;;9.35;8.45;;;;;;;;;;5067477;28;20294;-71
2023/06/20 09:52:46;;;;;;;11.23;9.98;;;;;;;;;;5070397;28;20191;-71
2023/06/20 09:55:12;;;;;;;10.18;7.03;;;;;;;;;;5068766;28;20193;-70
2023/06/20 09:57:43;;;;;;;7.97;7.03;;;;;;;;;;5084089;28;20257;-70
2023/06/20 10:00:15;;;;;;;8.68;7.82;;;;;;;;;;5068925;28;20183;-70
2023/06/20 10:02:45;;;;;;;8.50;7.70;;;;;;;;;;5081227;28;20188;-70
2023/06/20 10:05:19;;;;;;;8.43;6.22;;;;;;;;;;5075314;28;20191;-71
2023/06/20 10:07:46;;;;;;;12.05;8.07;;;;;;;;;;5076769;28;20212;-69
2023/06/20 10:10:14;;;;;;;11.25;6.80;;;;;;;;;;5078369;28;20184;-70
2023/06/20 10:12:42;;;;;;;8.00;7.25;;;;;;;;;;5076989;28;20180;-71
2023/06/20 10:15:09;;;;;;;8.00;7.00;;;;;;;;;;5074222;28;20284;-72
2023/06/20 10:17:39;;;;;;;7.45;6.65;;;;;;;;;;5073154;28;20215;-72
2023/06/20 10:20:08;;;;;;;8.40;6.90;;;;;;;;;;5070665;28;20599;-71
2023/06/20 10:22:43;;;;;;;6.85;6.15;;;;;;;;;;5076146;28;20667;-71
2023/06/20 10:25:13;;;;;;;8.32;7.07;;;;;;;;;;5070441;28;20521;-71
2023/06/20 10:27:43;;;;;;;7.68;6.35;;;;;;;;;;5079273;28;20650;-71
2023/06/20 10:30:13;;;;;;;7.38;5.95;;;;;;;;;;5082208;28;20431;-71
2023/06/20 10:33:08;;;;;;;6.93;6.22;;;;;;;;;;5071307;28;20188;-71
2023/06/20 10:35:33;;;;;;;7.93;6.03;;;;;;;;;;5074171;28;20231;-71
2023/06/20 10:38:08;;;;;;;6.32;5.72;;;;;;;;;;5075828;28;20212;-71
2023/06/20 10:40:36;;;;;;;7.90;6.07;;;;;;;;;;5070784;28;20316;-71
2023/06/20 10:43:08;;;;;;;7.28;5.95;;;;;;;;;;5076683;28;20189;-71
2023/06/20 10:45:35;;;;;;;7.63;5.47;;;;;;;;;;5073121;28;20261;-71
2023/06/20 10:48:02;;;;;;;6.10;5.50;;;;;;;;;;5072849;28;20225;-70
2023/06/20 10:50:27;;;;;;;10.23;6.35;;;;;;;;;;5077635;28;20535;-70
2023/06/20 10:52:53;;;;;;;6.68;6.00;;;;;;;;;;5073604;28;20188;-70
2023/06/20 10:55:23;;;;;;;6.40;5.90;;;;;;;;;;5071492;28;20612;-70
2023/06/20 10:57:50;;;;;;;8.10;6.22;;;;;;;;;;5077037;28;20183;-74
2023/06/20 11:00:17;;;;;;;7.03;6.32;;;;;;;;;;5079403;28;20195;-71
2023/06/20 11:02:48;;;;;;;9.10;7.35;;;;;;;;;;5088656;28;20312;-71
2023/06/20 11:05:14;;;;;;;8.63;6.68;;;;;;;;;;5084186;28;20206;-71
2023/06/20 11:07:58;;;;;;;7.05;6.40;;;;;;;;;;5079863;28;20286;-71
2023/06/20 11:10:37;;;;;;;7.82;6.20;;;;;;;;;;5080728;28;20619;-71
2023/06/20 11:13:06;;;;;;;7.97;6.18;;;;;;;;;;5083712;28;20370;-71
2023/06/20 11:15:34;;;;;;;7.03;6.32;;;;;;;;;;5077545;28;20270;-72
2023/06/20 11:18:07;;;;;;;6.22;5.63;;;;;;;;;;5076967;28;20191;-71
2023/06/20 11:20:39;;;;;;;10.43;7.22;;;;;;;;;;5078147;28;20291;-70
2023/06/20 11:23:06;;;;;;;7.97;6.97;;;;;;;;;;5082050;28;20257;-72
2023/06/20 11:25:38;;;;;;;9.48;6.82;;;;;;;;;;5088925;28;20210;-71
2023/06/20 11:28:15;;;;;;;7.00;6.30;;;;;;;;;;5075535;28;20308;-71
2023/06/20 11:30:45;;;;;;;7.47;6.55;;;;;;;;;;5083537;28;20240;-71
2023/06/20 11:33:12;;;;;;;7.78;6.43;;;;;;;;;;5090998;28;20183;-71
2023/06/20 11:35:44;;;;;;;7.38;6.47;;;;;;;;;;5082270;28;20196;-71
2023/06/20 11:38:19;;;;;;;9.82;7.10;;;;;;;;;;5084279;28;20211;-72
2023/06/20 11:40:45;;;;;;;6.68;6.03;;;;;;;;;;5074838;28;20226;-71
2023/06/20 11:43:22;;;;;;;8.18;6.80;;;;;;;;;;5075216;28;20226;-71
2023/06/20 11:45:47;;;;;;;9.88;7.97;;;;;;;;;;5078642;28;20195;-71
2023/06/20 11:48:14;;;;;;;7.05;6.45;;;;;;;;;;5071979;28;20564;-71
2023/06/20 11:50:42;;;;;;;7.13;6.53;;;;;;;;;;5074782;28;20192;-70
2023/06/20 11:53:18;;;;;;;7.18;6.57;;;;;;;;;;5082073;28;20635;-71
2023/06/20 11:55:51;;;;;;;8.60;7.68;;;;;;;;;;5079022;28;20538;-71
2023/06/20 11:58:17;;;;;;;7.85;6.75;;;;;;;;;;5071058;28;20187;-71
2023/06/20 12:00:46;;;;;;;7.22;6.18;;;;;;;;;;5084542;28;20207;-71
2023/06/20 12:03:15;;;;;;;12.77;6.60;;;;;;;;;;5073845;28;20191;-70
2023/06/20 12:05:40;;;;;;;8.40;6.70;;;;;;;;;;5070918;28;20194;-69
2023/06/20 12:08:06;;;;;;;8.82;5.75;;;;;;;;;;5086836;28;20208;-71
2023/06/20 12:10:33;;;;;;;8.50;6.22;;;;;;;;;;5076752;28;20184;-72
2023/06/20 12:13:03;;;;;;;8.38;6.55;;;;;;;;;;5082665;28;20184;-72
2023/06/20 12:15:28;;;;;;;7.30;6.55;;;;;;;;;;5082849;28;20405;-72
2023/06/20 12:17:54;;;;;;;6.93;6.28;;;;;;;;;;5079953;28;20275;-70
2023/06/20 12:20:19;;;;;;;18.83;6.50;;;;;;;;;;5076985;28;20594;-70
2023/06/20 12:22:45;;;;;;;15.88;6.38;;;;;;;;;;5073338;28;20192;-71
2023/06/20 12:25:10;;;;;;;5.65;5.22;;;;;;;;;;5072754;28;20188;-72
2023/06/20 12:27:36;;;;;;;7.90;5.43;;;;;;;;;;5080115;28;20207;-70
2023/06/20 12:30:02;;;;;;;6.50;5.78;;;;;;;;;;5080699;28;20283;-72
2023/06/20 12:32:27;;;;;;;5.90;5.40;;;;;;;;;;5085208;28;20196;-70
2023/06/20 12:34:52;;;;;;;6.28;5.75;;;;;;;;;;5085305;28;20248;-71
2023/06/20 12:37:18;;;;;;;6.15;5.55;;;;;;;;;;5073076;28;20215;-69
2023/06/20 12:39:43;;;;;;;7.40;5.30;;;;;;;;;;5075126;28;20219;-68
2023/06/20 12:42:09;;;;;;;6.47;5.25;;;;;;;;;;5068955;28;20205;-70
2023/06/20 12:44:34;;;;;;;6.35;5.75;;;;;;;;;;5080984;28;20195;-71
2023/06/20 12:46:59;;;;;;;5.53;4.97;;;;;;;;;;5077623;28;20382;-70
2023/06/20 12:49:25;;;;;;;6.32;5.65;;;;;;;;;;5078990;28;20666;-71
2023/06/20 12:51:50;;;;;;;6.93;6.22;;;;;;;;;;5082413;28;20187;-71
2023/06/20 12:54:15;;;;;;;6.15;5.50;;;;;;;;;;5075593;28;20276;-71
2023/06/20 12:56:41;;;;;;;6.15;5.55;;;;;;;;;;5078519;28;20635;-71
2023/06/20 12:59:07;;;;;;;6.55;5.55;;;;;;;;;;5071218;28;20667;-71
2023/06/20 13:01:32;;;;;;;6.13;5.65;;;;;;;;;;5075204;28;20219;-70
2023/06/20 13:03:58;;;;;;;7.45;6.20;;;;;;;;;;5082506;28;20199;-70
2023/06/20 13:06:23;;;;;;;6.38;5.82;;;;;;;;;;4724426;28;10000614;-72
2023/06/20 13:08:49;;;;;;;6.38;5.70;;;;;;;;;;5074472;28;20213;-72
2023/06/20 13:11:14;;;;;;;6.20;5.60;;;;;;;;;;5077537;28;21304;-72
2023/06/20 13:13:40;;;;;;;7.32;6.43;;;;;;;;;;5084746;28;20274;-70
2023/06/20 13:16:05;;;;;;;6.22;5.70;;;;;;;;;;5085762;28;20274;-72
2023/06/20 13:18:31;;;;;;;7.20;5.97;;;;;;;;;;5083273;28;20187;-71
2023/06/20 13:20:56;;;;;;;9.40;6.53;;;;;;;;;;5078218;28;20394;-71
2023/06/20 13:23:22;;;;;;;6.38;5.78;;;;;;;;;;5084161;28;20202;-72
2023/06/20 13:25:47;;;;;;;7.03;5.70;;;;;;;;;;5083152;28;20193;-69
2023/06/20 13:28:13;;;;;;;7.18;5.97;;;;;;;;;;5070116;28;20206;-71
2023/06/20 13:30:38;;;;;;;6.40;5.80;;;;;;;;;;5084372;28;20282;-72
2023/06/20 13:33:04;;;;;;;6.38;5.88;;;;;;;;;;5085400;28;20187;-71
2023/06/20 13:35:29;;;;;;;6.97;6.38;;;;;;;;;;5083323;28;20437;-71
2023/06/20 13:37:55;;;;;;;6.57;6.05;;;;;;;;;;5085334;28;20203;-71
2023/06/20 13:40:23;;;;;;;7.07;6.38;;;;;;;;;;5079677;28;20227;-71
2023/06/20 13:42:49;;;;;;;8.07;6.20;;;;;;;;;;5077741;28;20195;-71
2023/06/20 13:45:17;;;;;;;6.63;5.57;;;;;;;;;;5082570;28;20211;-71
2023/06/20 13:47:43;;;;;;;6.40;5.80;;;;;;;;;;5082878;28;20206;-71
2023/06/20 13:50:09;;;;;;;6.65;5.90;;;;;;;;;;5081188;28;20909;-71
2023/06/20 13:52:37;;;;;;;6.53;5.90;;;;;;;;;;5070946;28;20244;-70
2023/06/20 13:55:03;;;;;;;5.97;5.47;;;;;;;;;;5074836;28;20710;-71
2023/06/20 13:57:28;;;;;;;5.97;5.35;;;;;;;;;;5079740;28;20179;-71
2023/06/20 13:59:54;;;;;;;6.30;5.38;;;;;;;;;;5075190;28;20279;-72
2023/06/20 14:02:20;;;;;;;5.85;5.32;;;;;;;;;;5080711;28;20439;-71
2023/06/20 14:04:45;;;;;;;7.10;5.40;;;;;;;;;;5078174;28;20221;-68
2023/06/20 14:07:11;;;;;;;5.85;5.35;;;;;;;;;;5084227;28;20210;-70
2023/06/20 14:09:36;;;;;;;6.03;5.13;;;;;;;;;;5083487;28;20222;-71
2023/06/20 14:12:02;;;;;;;8.63;5.28;;;;;;;;;;5071173;28;20291;-70
2023/06/20 14:14:28;;;;;;;5.55;5.05;;;;;;;;;;5070644;28;20191;-71
2023/06/20 14:16:54;;;;;;;6.95;5.97;;;;;;;;;;5080361;28;20218;-71
2023/06/20 14:19:20;;;;;;;6.50;5.70;;;;;;;;;;5077018;28;20784;-71
2023/06/20 14:21:46;;;;;;;5.70;5.20;;;;;;;;;;5073769;28;20276;-70
2023/06/20 14:24:12;;;;;;;6.53;5.80;;;;;;;;;;5079117;28;20286;-69
2023/06/20 14:26:39;;;;;;;7.65;5.50;;;;;;;;;;5071006;28;20615;-69
2023/06/20 14:29:05;;;;;;;7.20;5.57;;;;;;;;;;5072428;28;20188;-71
2023/06/20 14:31:31;;;;;;;6.75;5.50;;;;;;;;;;5076830;28;20183;-71